Meteo Giornale » Osservazioni meteo Italia » Messina

ore: 02:55 - Osservazioni Meteo Messina
Lat. 38° 12' N Lon. 15° 33' E Alt. 59 metri s.l.m.

sereno Europe/Rome

27 °C

Sereno

Temp. 24 Ore

27 °C

33 °C

Nord

5.5 Km/h

Dew point 20 °C

Umidità 65 %

Visibilità  10 Km

Il sole sorge alle ore 06:02

Il sole tramonta alle ore 20:04

Data e Ora Cielo e Fenomeni T °C DP °C Um. % Pres. hPa Vis. km Vento km/h
Oggi h: 02:55 sereno Sereno 27 20 65 1012 10 N 5.5
Oggi h: 01:55 sereno Sereno 27 23 78 1013 10 N 5.5
Oggi h: 00:55 sereno Sereno 27 22 74 1013 10 N 5.5
Ieri h: 23:55 sereno Sereno 27 20 65 1013 10 N 0
Ieri h: 22:55 sereno Sereno 28 22 69 1013 10 N 3.7
Ieri h: 21:55 sereno Sereno 28 24 78 1013 10 S/SO 9.3
Ieri h: 20:55 sereno Sereno 29 24 74 1013 10 S/SO 7.4
Ieri h: 19:55 sereno Sereno 29 24 74 1013 10 S/SO 9.3
Ieri h: 17:55 sereno Sereno 31 27 79 1013 10 NO 11.1
Ieri h: 16:55 sereno Sereno 33 19 43 1013 10 E/NE 11.1
Ieri h: 15:55 sereno Sereno 32 21 52 1014 10 S/SO 16.7
Ieri h: 13:55 sereno Sereno 32 23 59 1014 10 S 9.3
Ieri h: 12:55 sereno Sereno 32 23 59 1014 10 S 11.1
Ieri h: 11:55 sereno Sereno 32 22 55 1014 10 S/SO 9.3
Ieri h: 10:55 sereno Sereno 29 24 74 1014 10 S/SO 7.4
Ieri h: 09:55 sereno Sereno 30 25 74 1014 10 S 7.4
Ieri h: 08:55 sereno Sereno 31 19 48 1014 10 S/SO 7.4
Ieri h: 07:55 sereno Sereno 28 19 58 1014 10 N 0
Ieri h: 06:55 sereno Sereno 27 18 57 1014 10 N 1.8
Ieri h: 05:55 sereno Sereno 27 18 57 1014 10 N 0
Ieri h: 04:55 sereno Sereno 28 19 58 1014 10 O/SO 7.4
Ieri h: 03:55 sereno Sereno 28 21 65 1014 10 O/SO 9.3